Time;durP1;ratioP1;P1;durP2;ratioP2;P2;SDS_P1;SDS_P2;PMS_P1;PMS_P2;Temp;Humidity;BMP_temperature;BMP_pressure;BME280_temperature;BME280_humidity;BME280_pressure;Samples;Min_cycle;Max_cycle;Signal;HPM_P1;HPM_P2
2022/01/09 00:00:16;;;;;;;;;;;;;;;5.42;88.55;98954.91;5076918;28;19960;-79
2022/01/09 00:02:46;;;;;;;;;;;;;;;5.38;94.67;98961.78;5076255;28;19982;-81
2022/01/09 00:05:12;;;;;;;;;;;;;;;5.49;100.00;98961.19;5077709;28;19916;-82
2022/01/09 00:07:39;;;;;;;;;;;;;;;5.47;100.00;98947.19;5076912;28;20280;-81
2022/01/09 00:10:05;;;;;;;;;;;;;;;5.51;100.00;98967.34;5077183;28;20352;-82
2022/01/09 00:12:31;;;;;;;;;;;;;;;5.56;100.00;98960.50;5077129;28;20014;-81
2022/01/09 00:14:56;;;;;;;;;;;;;;;5.62;100.00;98962.38;5074039;28;19920;-80
2022/01/09 00:17:22;;;;;;;;;;;;;;;5.66;100.00;98964.25;5077007;28;19928;-80
2022/01/09 00:19:47;;;;;;;;;;;;;;;5.64;100.00;98969.44;5076620;28;20697;-82
2022/01/09 00:22:20;;;;;;;;;;;;;;;5.66;100.00;98969.47;5076580;28;19927;-82
2022/01/09 00:24:46;;;;;;;;;;;;;;;5.67;100.00;98972.13;5076945;28;20414;-81
2022/01/09 00:27:11;;;;;;;;;;;;;;;5.68;100.00;98957.31;5076795;28;19948;-82
2022/01/09 00:29:37;;;;;;;;;;;;;;;5.72;100.00;98956.56;5075860;28;19965;-80
2022/01/09 00:32:03;;;;;;;;;;;;;;;5.67;100.00;98966.91;5060329;28;19924;-79
2022/01/09 00:34:28;;;;;;;;;;;;;;;5.69;100.00;98954.75;5076948;28;19920;-81
2022/01/09 00:36:53;;;;;;;;;;;;;;;5.74;100.00;98960.09;5076443;28;19978;-79
2022/01/09 00:39:21;;;;;;;;;;;;;;;5.75;100.00;98954.91;5076680;28;20276;-79
2022/01/09 00:41:54;;;;;;;;;;;;;;;5.79;100.00;98954.97;5076249;28;19923;-81
2022/01/09 00:44:19;;;;;;;;;;;;;;;5.78;100.00;98948.88;5074593;28;20006;-79
2022/01/09 00:46:44;;;;;;;;;;;;;;;5.77;100.00;98951.47;5076556;28;19948;-82
2022/01/09 00:49:09;;;;;;;;;;;;;;;5.79;100.00;98944.53;5076188;28;19966;-80
2022/01/09 00:51:34;;;;;;;;;;;;;;;5.82;100.00;98944.59;5059971;28;19924;-81
2022/01/09 00:54:04;;;;;;;;;;;;;;;5.79;100.00;98941.91;5076194;28;19920;-80
2022/01/09 00:56:29;;;;;;;;;;;;;;;5.82;100.00;98942.00;5076821;28;19931;-79
2022/01/09 00:58:54;;;;;;;;;;;;;;;5.78;100.00;98935.81;5076646;28;19916;-81
2022/01/09 01:01:20;;;;;;;;;;;;;;;5.79;100.00;98940.19;5076512;28;20364;-79
2022/01/09 01:03:51;;;;;;;;;;;;;;;5.79;100.00;98928.88;5075775;28;19924;-81
2022/01/09 01:06:16;;;;;;;;;;;;;;;5.78;100.00;98927.09;5076225;28;19924;-80
2022/01/09 01:08:41;;;;;;;;;;;;;;;5.78;100.00;98932.31;5093905;28;19920;-80
2022/01/09 01:11:09;;;;;;;;;;;;;;;5.76;100.00;98924.44;5076485;28;19920;-81
2022/01/09 01:13:36;;;;;;;;;;;;;;;5.76;100.00;98927.03;5076185;28;19927;-80
2022/01/09 01:16:01;;;;;;;;;;;;;;;5.80;100.00;98920.19;5076655;28;19927;-77
2022/01/09 01:18:27;;;;;;;;;;;;;;;5.78;100.00;98927.09;5076348;28;19924;-78
2022/01/09 01:20:52;;;;;;;;;;;;;;;5.78;100.00;98933.22;5076076;28;19927;-81
2022/01/09 01:23:31;;;;;;;;;;;;;;;5.78;100.00;98946.28;5075890;28;19920;-81
2022/01/09 01:26:00;;;;;;;;;;;;;;;5.74;100.00;98955.75;5076692;28;19920;-81
2022/01/09 01:28:26;;;;;;;;;;;;;;;5.77;100.00;98954.06;5076624;28;19928;-81
2022/01/09 01:30:51;;;;;;;;;;;;;;;5.75;100.00;98961.88;5076102;28;19984;-80
2022/01/09 01:33:18;;;;;;;;;;;;;;;5.72;100.00;98973.09;5076293;28;19997;-81
2022/01/09 01:35:44;;;;;;;;;;;;;;;5.67;100.00;98976.44;5076552;28;19928;-81
2022/01/09 01:38:09;;;;;;;;;;;;;;;5.68;100.00;98966.03;5076350;28;19920;-79
2022/01/09 01:40:34;;;;;;;;;;;;;;;5.72;100.00;98991.38;5078007;28;19927;-84
2022/01/09 01:43:01;;;;;;;;;;;;;;;5.71;100.00;99005.28;5079819;28;19924;-83
2022/01/09 01:45:27;;;;;;;;;;;;;;;5.73;100.00;99015.78;5079742;28;19920;-81
2022/01/09 01:47:52;;;;;;;;;;;;;;;5.72;100.00;99016.63;5079482;28;19927;-80
2022/01/09 01:50:19;;;;;;;;;;;;;;;5.72;100.00;99029.69;5075709;28;19921;-80
2022/01/09 01:52:50;;;;;;;;;;;;;;;5.72;100.00;99042.75;5059959;28;19921;-80
2022/01/09 01:55:16;;;;;;;;;;;;;;;5.73;100.00;99040.19;5077824;28;19920;-81
2022/01/09 01:57:42;;;;;;;;;;;;;;;5.72;100.00;99046.22;5059232;28;19974;-83
2022/01/09 02:00:09;;;;;;;;;;;;;;;5.74;100.00;99054.13;5059430;28;19921;-81
2022/01/09 02:02:34;;;;;;;;;;;;;;;5.67;100.00;99060.91;5057964;28;19920;-82
2022/01/09 02:04:59;;;;;;;;;;;;;;;5.67;100.00;99058.28;5058811;28;19920;-80
2022/01/09 02:07:25;;;;;;;;;;;;;;;5.62;100.00;99072.94;5059701;28;19921;-82
2022/01/09 02:09:51;;;;;;;;;;;;;;;5.62;100.00;99077.28;5059677;28;19920;-81
2022/01/09 02:12:23;;;;;;;;;;;;;;;5.57;100.00;99077.16;5059628;28;20011;-81
2022/01/09 02:14:48;;;;;;;;;;;;;;;5.53;100.00;99088.34;5059839;28;19950;-80
2022/01/09 02:17:18;;;;;;;;;;;;;;;5.52;100.00;99090.09;5060474;28;19961;-83
2022/01/09 02:19:53;;;;;;;;;;;;;;;5.55;100.00;99091.91;5079915;28;20046;-83
2022/01/09 02:22:19;;;;;;;;;;;;;;;5.55;100.00;99110.19;5088018;28;20022;-82
2022/01/09 02:24:44;;;;;;;;;;;;;;;5.53;100.00;99117.97;5087973;28;19920;-83
2022/01/09 02:27:09;;;;;;;;;;;;;;;5.54;100.00;99116.22;5087681;28;19920;-82
2022/01/09 02:29:34;;;;;;;;;;;;;;;5.52;100.00;99123.16;5077993;28;19923;-82
2022/01/09 02:32:01;;;;;;;;;;;;;;;5.51;100.00;99129.19;5078242;28;20015;-82
2022/01/09 02:34:27;;;;;;;;;;;;;;;5.45;100.00;99142.94;5080261;28;19969;-80
2022/01/09 02:36:52;;;;;;;;;;;;;;;5.29;100.00;99143.34;5081499;28;19921;-79
2022/01/09 02:39:17;;;;;;;;;;;;;;;5.21;100.00;99140.53;5085250;28;19928;-81
2022/01/09 02:41:43;;;;;;;;;;;;;;;5.13;100.00;99145.50;5083133;28;20516;-81
2022/01/09 02:44:11;;;;;;;;;;;;;;;5.08;100.00;99152.31;5080767;28;19979;-81
2022/01/09 02:49:08;;;;;;;;;;;;;;;5.15;100.00;99150.78;5076764;28;19924;-81
2022/01/09 02:51:39;;;;;;;;;;;;;;;5.14;100.00;99169.88;5075212;28;19920;-83
2022/01/09 02:56:53;;;;;;;;;;;;;;;5.18;100.00;99185.66;5064641;28;19928;-79
2022/01/09 02:59:18;;;;;;;;;;;;;;;5.20;100.00;99190.94;5075273;28;19924;-83
2022/01/09 03:01:43;;;;;;;;;;;;;;;5.16;100.00;99196.91;5074686;28;19925;-82
2022/01/09 03:04:09;;;;;;;;;;;;;;;5.17;100.00;99188.22;5075101;28;19920;-81
2022/01/09 03:06:34;;;;;;;;;;;;;;;5.20;100.00;99209.19;5074731;28;20011;-82
2022/01/09 03:09:01;;;;;;;;;;;;;;;5.11;100.00;99214.13;5075346;28;20233;-83
2022/01/09 03:11:26;;;;;;;;;;;;;;;5.11;100.00;99224.56;5075541;28;20413;-80
2022/01/09 03:14:07;;;;;;;;;;;;;;;5.07;100.00;99228.81;5074557;28;19920;-81
2022/01/09 03:16:32;;;;;;;;;;;;;;;5.04;100.00;99241.75;5074617;28;19917;-80
2022/01/09 03:18:58;;;;;;;;;;;;;;;4.98;100.00;99239.81;5074507;28;19932;-81
2022/01/09 03:21:23;;;;;;;;;;;;;;;4.98;100.00;99246.78;5074336;28;19927;-80
2022/01/09 03:23:51;;;;;;;;;;;;;;;4.92;100.00;99255.28;5074208;28;19963;-81
2022/01/09 03:26:17;;;;;;;;;;;;;;;4.88;100.00;99256.03;5075390;28;19927;-80
2022/01/09 03:28:42;;;;;;;;;;;;;;;4.87;100.00;99254.25;5074282;28;20011;-81
2022/01/09 03:31:07;;;;;;;;;;;;;;;4.92;100.00;99264.84;5074001;28;19920;-81
2022/01/09 03:33:33;;;;;;;;;;;;;;;4.96;100.00;99272.81;5074143;28;19921;-82
2022/01/09 03:35:59;;;;;;;;;;;;;;;4.98;100.00;99281.56;5076969;28;19921;-82
2022/01/09 03:38:24;;;;;;;;;;;;;;;4.96;100.00;99277.16;5076292;28;19921;-83
2022/01/09 03:40:49;;;;;;;;;;;;;;;4.95;100.00;99281.47;5074170;28;20385;-83
2022/01/09 03:43:17;;;;;;;;;;;;;;;4.94;100.00;99284.03;5057840;28;19924;-81
2022/01/09 03:45:43;;;;;;;;;;;;;;;4.88;100.00;99295.16;5073581;28;19928;-80
2022/01/09 03:48:08;;;;;;;;;;;;;;;4.84;100.00;99296.75;5074001;28;19927;-81
2022/01/09 03:50:33;;;;;;;;;;;;;;;4.84;100.00;99294.13;5073473;28;19952;-81
2022/01/09 03:53:16;;;;;;;;;;;;;;;4.85;100.00;99305.47;5073827;28;20269;-83
2022/01/09 03:55:41;;;;;;;;;;;;;;;4.85;100.00;99300.25;5073994;28;19956;-82
2022/01/09 03:58:07;;;;;;;;;;;;;;;4.85;100.00;99315.91;5073494;28;20313;-82
2022/01/09 04:00:32;;;;;;;;;;;;;;;4.82;100.00;99321.03;5074667;28;19920;-81
2022/01/09 04:02:57;;;;;;;;;;;;;;;4.81;100.00;99317.50;5072999;28;19968;-81
2022/01/09 04:05:22;;;;;;;;;;;;;;;4.80;100.00;99312.25;5057335;28;19924;-81
2022/01/09 04:07:48;;;;;;;;;;;;;;;4.76;100.00;99315.59;5073883;28;19921;-80
2022/01/09 04:10:14;;;;;;;;;;;;;;;4.75;100.00;99326.84;5073872;28;20241;-80
2022/01/09 04:12:49;;;;;;;;;;;;;;;4.77;100.00;99322.56;5056453;28;19925;-81
2022/01/09 04:15:15;;;;;;;;;;;;;;;4.75;100.00;99330.34;5074881;28;19928;-80
2022/01/09 04:17:51;;;;;;;;;;;;;;;4.72;100.00;99340.66;5072305;28;20132;-81
2022/01/09 04:20:16;;;;;;;;;;;;;;;4.67;100.00;99348.31;5093752;28;20382;-80
2022/01/09 04:22:43;;;;;;;;;;;;;;;4.63;100.00;99346.47;5093546;28;20006;-80
2022/01/09 04:25:08;;;;;;;;;;;;;;;4.57;100.00;99356.66;5094188;28;19920;-80
2022/01/09 04:27:33;;;;;;;;;;;;;;;4.51;100.00;99359.06;5094559;28;19984;-80
2022/01/09 04:29:59;;;;;;;;;;;;;;;4.45;100.00;99366.66;5096101;28;19920;-81
2022/01/09 04:32:26;;;;;;;;;;;;;;;4.43;100.00;99373.53;5093893;28;19920;-80
2022/01/09 04:34:51;;;;;;;;;;;;;;;4.46;100.00;99373.66;5093539;28;19935;-82
2022/01/09 04:37:17;;;;;;;;;;;;;;;4.47;100.00;99380.59;5093986;28;19920;-80
2022/01/09 04:39:45;;;;;;;;;;;;;;;4.47;100.00;99391.03;5093803;28;19921;-81
2022/01/09 04:42:13;;;;;;;;;;;;;;;4.47;100.00;99398.84;5093960;28;19920;-81
2022/01/09 04:44:38;;;;;;;;;;;;;;;4.42;100.00;99398.69;5093714;28;19920;-81
2022/01/09 04:47:08;;;;;;;;;;;;;;;4.42;100.00;99403.91;5093649;28;20027;-80
2022/01/09 04:49:38;;;;;;;;;;;;;;;4.38;100.00;99406.34;5095052;28;19920;-80
2022/01/09 04:52:14;;;;;;;;;;;;;;;4.31;100.00;99418.25;5095036;28;19937;-82
2022/01/09 04:54:39;;;;;;;;;;;;;;;4.29;100.00;99426.00;5093942;28;19920;-81
2022/01/09 04:57:04;;;;;;;;;;;;;;;4.35;100.00;99424.47;5094576;28;19916;-80
2022/01/09 04:59:30;;;;;;;;;;;;;;;4.36;100.00;99442.75;5094951;28;19927;-82
2022/01/09 05:01:55;;;;;;;;;;;;;;;4.40;100.00;99429.03;5093272;28;19916;-81
2022/01/09 05:04:20;;;;;;;;;;;;;;;4.42;100.00;99435.19;5093997;28;20010;-81
2022/01/09 05:06:45;;;;;;;;;;;;;;;4.48;100.00;99435.41;5093504;28;20360;-79
2022/01/09 05:09:10;;;;;;;;;;;;;;;4.53;100.00;99442.53;5093835;28;19966;-81
2022/01/09 05:11:36;;;;;;;;;;;;;;;4.56;100.00;99453.94;5093180;28;19924;-81
2022/01/09 05:14:01;;;;;;;;;;;;;;;4.57;100.00;99453.13;5095471;28;19927;-81
2022/01/09 05:16:27;;;;;;;;;;;;;;;4.60;100.00;99466.28;5097042;28;19926;-80
2022/01/09 05:18:55;;;;;;;;;;;;;;;4.60;100.00;99465.38;5096881;28;19969;-81
2022/01/09 05:21:20;;;;;;;;;;;;;;;4.62;100.00;99463.72;5097913;28;19924;-81
2022/01/09 05:23:49;;;;;;;;;;;;;;;4.58;100.00;99467.91;5101061;28;20360;-83
2022/01/09 05:26:14;;;;;;;;;;;;;;;4.59;100.00;99480.13;5097475;28;20520;-81
2022/01/09 05:28:39;;;;;;;;;;;;;;;4.57;100.00;99479.19;5096656;28;19927;-80
2022/01/09 05:31:04;;;;;;;;;;;;;;;4.54;100.00;99480.78;5097537;28;19920;-81
2022/01/09 05:33:32;;;;;;;;;;;;;;;4.54;100.00;99489.50;5097907;28;19920;-80
2022/01/09 05:35:57;;;;;;;;;;;;;;;4.54;100.00;99481.69;5096738;28;20002;-80
2022/01/09 05:38:22;;;;;;;;;;;;;;;4.60;100.00;99489.75;5096594;28;19958;-81
2022/01/09 05:40:48;;;;;;;;;;;;;;;4.62;100.00;99495.91;5096117;28;20271;-81
2022/01/09 05:43:19;;;;;;;;;;;;;;;4.61;100.00;99496.72;5096055;28;19934;-81
2022/01/09 05:45:44;;;;;;;;;;;;;;;4.59;100.00;99502.72;5095901;28;19951;-82
2022/01/09 05:48:10;;;;;;;;;;;;;;;4.62;100.00;99505.44;5096716;28;19920;-80
2022/01/09 05:50:35;;;;;;;;;;;;;;;4.61;100.00;99509.75;5096354;28;19920;-79
2022/01/09 05:53:05;;;;;;;;;;;;;;;4.61;100.00;99506.25;5096321;28;19966;-81
2022/01/09 05:55:31;;;;;;;;;;;;;;;4.66;100.00;99512.53;5096293;28;19928;-79
2022/01/09 05:57:56;;;;;;;;;;;;;;;4.65;100.00;99516.00;5095915;28;19927;-81
2022/01/09 06:00:21;;;;;;;;;;;;;;;4.64;100.00;99515.09;5096659;28;20003;-80
2022/01/09 06:02:47;;;;;;;;;;;;;;;4.64;100.00;99527.25;5095990;28;20318;-80
2022/01/09 06:05:12;;;;;;;;;;;;;;;4.58;100.00;99525.28;5095943;28;20264;-80
2022/01/09 06:07:38;;;;;;;;;;;;;;;4.60;100.00;99539.28;5095798;28;19927;-80
2022/01/09 06:10:03;;;;;;;;;;;;;;;4.59;100.00;99539.22;5096043;28;19920;-80
2022/01/09 06:12:31;;;;;;;;;;;;;;;4.60;100.00;99534.06;5095163;28;19920;-81
2022/01/09 06:14:56;;;;;;;;;;;;;;;4.58;100.00;99533.09;5079585;28;20208;-80
2022/01/09 06:17:21;;;;;;;;;;;;;;;4.64;100.00;99543.78;5096120;28;20001;-80
2022/01/09 06:19:46;;;;;;;;;;;;;;;4.62;100.00;99550.66;5095390;28;19920;-80
2022/01/09 06:22:18;;;;;;;;;;;;;;;4.60;100.00;99564.44;5095861;28;19947;-81
2022/01/09 06:24:43;;;;;;;;;;;;;;;4.54;100.00;99562.50;5096208;28;19920;-83
2022/01/09 06:27:08;;;;;;;;;;;;;;;4.41;100.00;99562.84;5095412;28;20344;-79
2022/01/09 06:29:34;;;;;;;;;;;;;;;4.27;100.00;99568.41;5095459;28;19916;-80
2022/01/09 06:31:59;;;;;;;;;;;;;;;4.19;100.00;99561.97;5095151;28;19920;-81
2022/01/09 06:34:24;;;;;;;;;;;;;;;4.15;100.00;99560.09;5093290;28;19920;-81
2022/01/09 06:36:49;;;;;;;;;;;;;;;4.14;100.00;99567.00;5095044;28;19920;-81
2022/01/09 06:39:15;;;;;;;;;;;;;;;4.10;100.00;99566.81;5095897;28;20035;-81
2022/01/09 06:41:40;;;;;;;;;;;;;;;4.05;100.00;99574.44;5095319;28;19916;-80
2022/01/09 06:44:06;;;;;;;;;;;;;;;3.99;100.00;99574.16;5095445;28;19924;-80
2022/01/09 06:46:31;;;;;;;;;;;;;;;3.95;100.00;99570.56;5062005;28;19929;-80
2022/01/09 06:48:57;;;;;;;;;;;;;;;3.89;100.00;99574.63;5055297;28;20403;-80
2022/01/09 06:51:22;;;;;;;;;;;;;;;3.86;100.00;99580.59;5038800;28;19936;-81
2022/01/09 06:53:51;;;;;;;;;;;;;;;3.92;100.00;99591.25;5055258;28;19920;-82
2022/01/09 06:56:17;;;;;;;;;;;;;;;3.99;100.00;99594.13;5055575;28;20383;-81
2022/01/09 06:58:42;;;;;;;;;;;;;;;4.01;100.00;99588.16;5056135;28;19921;-80
2022/01/09 07:01:07;;;;;;;;;;;;;;;3.98;100.00;99605.38;5055235;28;19966;-81
2022/01/09 07:03:40;;;;;;;;;;;;;;;3.97;100.00;99603.59;5054806;28;19952;-80
2022/01/09 07:06:05;;;;;;;;;;;;;;;4.03;100.00;99598.66;5052721;28;20011;-81
2022/01/09 07:08:35;;;;;;;;;;;;;;;4.05;100.00;99603.09;5058543;28;19956;-80
2022/01/09 07:11:01;;;;;;;;;;;;;;;4.10;100.00;99603.28;5056008;28;19986;-80
2022/01/09 07:13:27;;;;;;;;;;;;;;;4.11;100.00;99603.34;5054803;28;20341;-80
2022/01/09 07:15:52;;;;;;;;;;;;;;;4.14;100.00;99606.06;5055728;28;19921;-81
2022/01/09 07:18:17;;;;;;;;;;;;;;;4.12;100.00;99615.56;5061288;28;19920;-81
2022/01/09 07:20:42;;;;;;;;;;;;;;;4.14;100.00;99618.22;5077652;28;19920;-81
2022/01/09 07:23:09;;;;;;;;;;;;;;;4.20;100.00;99626.28;5077800;28;19934;-82
2022/01/09 07:25:34;;;;;;;;;;;;;;;4.35;100.00;99619.94;5075733;28;19920;-81
2022/01/09 07:28:01;;;;;;;;;;;;;;;4.35;100.00;99619.94;5077927;28;19920;-81
2022/01/09 07:30:27;;;;;;;;;;;;;;;4.35;100.00;99626.06;5077961;28;19920;-80
2022/01/09 07:32:59;;;;;;;;;;;;;;;4.38;100.00;99641.81;5077478;28;20285;-80
2022/01/09 07:35:25;;;;;;;;;;;;;;;4.42;100.00;99661.06;5077925;28;19969;-80
2022/01/09 07:37:50;;;;;;;;;;;;;;;4.32;100.00;99641.56;5076269;28;19916;-79
2022/01/09 07:40:15;;;;;;;;;;;;;;;4.20;100.00;99661.91;5077509;28;20022;-81
2022/01/09 07:42:42;;;;;;;;;;;;;;;4.13;100.00;99652.91;5077014;28;19977;-80
2022/01/09 07:45:08;;;;;;;;;;;;;;;4.12;100.00;99669.38;5077469;28;19920;-79
2022/01/09 07:47:35;;;;;;;;;;;;;;;4.11;100.00;99670.19;5077332;28;19965;-79
2022/01/09 07:50:01;;;;;;;;;;;;;;;4.13;100.00;99678.97;5094963;28;20194;-80
2022/01/09 07:52:27;;;;;;;;;;;;;;;4.06;100.00;99669.13;5076913;28;19924;-81
2022/01/09 07:54:52;;;;;;;;;;;;;;;4.04;100.00;99665.53;5094252;28;19973;-80
2022/01/09 07:57:17;;;;;;;;;;;;;;;4.00;100.00;99669.72;5076872;28;19920;-79
2022/01/09 07:59:42;;;;;;;;;;;;;;;3.98;100.00;99665.28;5077448;28;19919;-80
2022/01/09 08:02:16;;;;;;;;;;;;;;;3.97;100.00;99668.72;5098440;28;20006;-80
2022/01/09 08:04:44;;;;;;;;;;;;;;;4.02;100.00;99667.19;5076339;28;19928;-80
2022/01/09 08:07:09;;;;;;;;;;;;;;;4.05;100.00;99675.16;5076813;28;19920;-80
2022/01/09 08:09:36;;;;;;;;;;;;;;;4.07;100.00;99678.69;5076294;28;20387;-80
2022/01/09 08:12:02;;;;;;;;;;;;;;;4.05;100.00;99685.56;5075971;28;19927;-80
2022/01/09 08:14:27;;;;;;;;;;;;;;;4.04;100.00;99686.38;5072690;28;19920;-80
2022/01/09 08:16:53;;;;;;;;;;;;;;;4.04;100.00;99687.28;5076164;28;20386;-80
2022/01/09 08:19:18;;;;;;;;;;;;;;;4.08;100.00;99694.38;5075890;28;19927;-80
2022/01/09 08:21:43;;;;;;;;;;;;;;;4.11;100.00;99704.06;5076563;28;20340;-80
2022/01/09 08:24:10;;;;;;;;;;;;;;;4.17;100.00;99695.63;5095128;28;19963;-79
2022/01/09 08:26:35;;;;;;;;;;;;;;;4.24;100.00;99709.00;5074114;28;20374;-81
2022/01/09 08:29:00;;;;;;;;;;;;;;;4.29;100.00;99704.84;5073546;28;20003;-80
2022/01/09 08:31:26;;;;;;;;;;;;;;;4.35;100.00;99706.84;5073290;28;19924;-79
2022/01/09 08:33:54;;;;;;;;;;;;;;;4.40;100.00;99709.66;5072831;28;19924;-82
2022/01/09 08:36:19;;;;;;;;;;;;;;;4.49;100.00;99718.75;5076618;28;19928;-81
2022/01/09 08:38:45;;;;;;;;;;;;;;;4.52;100.00;99719.69;5076419;28;19926;-79
2022/01/09 08:41:10;;;;;;;;;;;;;;;4.54;100.00;99716.34;5076444;28;19996;-82
2022/01/09 08:43:38;;;;;;;;;;;;;;;4.57;100.00;99733.78;5076211;28;19924;-81
2022/01/09 08:46:03;;;;;;;;;;;;;;;4.60;100.00;99731.31;5075743;28;19974;-80
2022/01/09 08:48:29;;;;;;;;;;;;;;;4.64;100.00;99739.34;5075365;28;19920;-81
2022/01/09 08:50:54;;;;;;;;;;;;;;;4.70;100.00;99745.66;5078950;28;19916;-83
2022/01/09 08:53:19;;;;;;;;;;;;;;;4.70;100.00;99751.75;5099548;28;19920;-81
2022/01/09 08:55:45;;;;;;;;;;;;;;;4.68;100.00;99758.63;5085236;28;19916;-79
2022/01/09 08:58:12;;;;;;;;;;;;;;;4.68;100.00;99767.34;5080778;28;19960;-80
2022/01/09 09:00:37;;;;;;;;;;;;;;;4.48;100.00;99773.41;5097986;28;19920;-80
2022/01/09 09:03:04;;;;;;;;;;;;;;;4.27;100.00;99769.06;5098291;28;19923;-81
2022/01/09 09:05:30;;;;;;;;;;;;;;;4.10;100.00;99772.63;5080390;28;19980;-83
2022/01/09 09:07:55;;;;;;;;;;;;;;;4.05;100.00;99766.31;5079638;28;19920;-83
2022/01/09 09:10:20;;;;;;;;;;;;;;;4.08;100.00;99767.34;5080389;28;19921;-82
2022/01/09 09:12:59;;;;;;;;;;;;;;;4.11;100.00;99775.28;5098333;28;20478;-84
2022/01/09 09:15:24;;;;;;;;;;;;;;;4.09;100.00;99782.16;5080578;28;19980;-83
2022/01/09 09:17:49;;;;;;;;;;;;;;;4.06;100.00;99791.56;5079847;28;20421;-84
2022/01/09 09:20:15;;;;;;;;;;;;;;;3.98;100.00;99790.31;5080029;28;20382;-85
2022/01/09 09:22:44;;;;;;;;;;;;;;;3.92;100.00;99790.94;5079391;28;19926;-79
2022/01/09 09:25:10;;;;;;;;;;;;;;;3.95;100.00;99796.28;5079696;28;20432;-85
2022/01/09 09:27:35;;;;;;;;;;;;;;;4.05;100.00;99795.88;5079667;28;20360;-84
2022/01/09 09:30:03;;;;;;;;;;;;;;;4.22;100.00;99795.75;5079086;28;19927;-81
2022/01/09 09:32:30;;;;;;;;;;;;;;;4.21;100.00;99815.69;5079725;28;20019;-80
2022/01/09 09:34:55;;;;;;;;;;;;;;;4.27;100.00;99815.97;5061990;28;20299;-81
2022/01/09 09:37:21;;;;;;;;;;;;;;;4.27;100.00;99810.75;5079352;28;20011;-83
2022/01/09 09:39:48;;;;;;;;;;;;;;;4.32;100.00;99824.88;5079047;28;19928;-81
2022/01/09 09:42:15;;;;;;;;;;;;;;;4.45;100.00;99815.88;5079029;28;19920;-82
2022/01/09 09:44:41;;;;;;;;;;;;;;;4.60;100.00;99823.50;5095692;28;19965;-81
2022/01/09 09:47:07;;;;;;;;;;;;;;;4.57;100.00;99835.47;5076899;28;20022;-81
2022/01/09 09:49:32;;;;;;;;;;;;;;;4.57;100.00;99828.56;5075588;28;20059;-82
2022/01/09 09:51:59;;;;;;;;;;;;;;;4.53;100.00;99829.25;5059000;28;19924;-81
2022/01/09 09:54:25;;;;;;;;;;;;;;;4.57;100.00;99832.88;5077066;28;20011;-80
2022/01/09 09:56:52;;;;;;;;;;;;;;;4.52;100.00;99832.66;5075691;28;19959;-82
2022/01/09 09:59:29;;;;;;;;;;;;;;;4.54;100.00;99838.88;5079227;28;19920;-80
2022/01/09 10:01:58;;;;;;;;;;;;;;;4.63;100.00;99834.06;5096044;28;19942;-82
2022/01/09 10:04:23;;;;;;;;;;;;;;;4.77;100.00;99842.47;5079649;28;20008;-81
2022/01/09 10:06:49;;;;;;;;;;;;;;;4.97;100.00;99845.03;5078819;28;20360;-79
2022/01/09 10:09:21;;;;;;;;;;;;;;;5.00;100.00;99848.69;5080024;28;19959;-81
2022/01/09 10:11:47;;;;;;;;;;;;;;;5.10;100.00;99849.94;5078935;28;19993;-82
2022/01/09 10:14:12;;;;;;;;;;;;;;;5.03;100.00;99864.47;5079602;28;20348;-82
2022/01/09 10:16:37;;;;;;;;;;;;;;;5.02;100.00;99857.44;5079837;28;19942;-81
2022/01/09 10:19:02;;;;;;;;;;;;;;;4.98;100.00;99860.75;5085252;28;20320;-81
2022/01/09 10:21:27;;;;;;;;;;;;;;;4.94;100.00;99853.63;5101048;28;19943;-80
2022/01/09 10:23:58;;;;;;;;;;;;;;;4.86;100.00;99870.66;5103087;28;19924;-82
2022/01/09 10:26:23;;;;;;;;;;;;;;;4.93;100.00;99872.72;5101910;28;19920;-80
2022/01/09 10:28:50;;;;;;;;;;;;;;;5.04;100.00;99865.34;5087910;28;20040;-81
2022/01/09 10:31:16;;;;;;;;;;;;;;;5.09;100.00;99862.94;5056518;28;20349;-81
2022/01/09 10:34:15;;;;;;;;;;;;;;;5.14;100.00;99877.06;5055440;28;20372;-80
2022/01/09 10:36:44;;;;;;;;;;;;;;;5.07;100.00;99877.63;5057730;28;19921;-80
2022/01/09 10:39:14;;;;;;;;;;;;;;;5.02;100.00;99878.31;5057313;28;19921;-81
2022/01/09 10:41:52;;;;;;;;;;;;;;;5.01;100.00;99884.34;5059380;28;19920;-80
2022/01/09 10:44:19;;;;;;;;;;;;;;;5.11;100.00;99888.28;5094977;28;19950;-81
2022/01/09 10:47:15;;;;;;;;;;;;;;;5.15;100.00;99881.47;5095325;28;19966;-79
2022/01/09 10:49:44;;;;;;;;;;;;;;;5.32;100.00;99890.88;5087852;28;19928;-81
2022/01/09 10:52:22;;;;;;;;;;;;;;;5.43;100.00;99895.66;5094902;28;19920;-80
2022/01/09 10:54:48;;;;;;;;;;;;;;;5.37;100.00;99891.94;5094653;28;19920;-79
2022/01/09 10:57:14;;;;;;;;;;;;;;;5.32;100.00;99903.94;5094924;28;20011;-79
2022/01/09 10:59:39;;;;;;;;;;;;;;;5.27;100.00;99902.84;5094655;28;19966;-80
2022/01/09 11:02:05;;;;;;;;;;;;;;;5.01;100.00;99907.84;5094563;28;19927;-83
2022/01/09 11:04:31;;;;;;;;;;;;;;;4.95;100.00;99910.19;5096247;28;20688;-80
2022/01/09 11:06:56;;;;;;;;;;;;;;;5.00;100.00;99906.09;5091980;28;19924;-79
2022/01/09 11:09:25;;;;;;;;;;;;;;;5.04;100.00;99902.75;5075439;28;20010;-79
2022/01/09 11:11:51;;;;;;;;;;;;;;;5.24;100.00;99901.84;5057651;28;19977;-81
2022/01/09 11:14:20;;;;;;;;;;;;;;;5.37;100.00;99899.78;5074605;28;19927;-84
2022/01/09 11:16:51;;;;;;;;;;;;;;;5.45;100.00;99899.22;5074236;28;19928;-82
2022/01/09 11:19:35;;;;;;;;;;;;;;;5.40;100.00;99906.84;5077595;28;19924;-82
2022/01/09 11:22:05;;;;;;;;;;;;;;;5.48;100.00;99912.41;5076559;28;20436;-85
2022/01/09 11:24:49;;;;;;;;;;;;;;;5.53;100.00;99905.63;5077224;28;19920;-81
2022/01/09 11:27:22;;;;;;;;;;;;;;;5.57;100.00;99910.16;5077572;28;20328;-84
2022/01/09 11:30:00;;;;;;;;;;;;;;;5.60;100.00;99912.91;5070121;28;19970;-82
2022/01/09 11:32:44;;;;;;;;;;;;;;;5.64;100.00;99925.28;5058456;28;19927;-80
2022/01/09 11:35:19;;;;;;;;;;;;;;;5.68;100.00;99923.66;5055838;28;20070;-80
2022/01/09 11:38:03;;;;;;;;;;;;;;;5.74;100.00;99934.38;5057332;28;19917;-84
2022/01/09 11:40:32;;;;;;;;;;;;;;;5.73;100.00;99933.50;5057352;28;20085;-82
2022/01/09 11:43:01;;;;;;;;;;;;;;;5.78;100.00;99935.38;5057017;28;20020;-80
2022/01/09 11:45:45;;;;;;;;;;;;;;;5.74;100.00;99943.09;5057714;28;19925;-79
2022/01/09 11:48:12;;;;;;;;;;;;;;;5.86;100.00;99949.66;5059557;28;19925;-79
2022/01/09 11:50:56;;;;;;;;;;;;;;;5.92;100.00;99955.13;5057564;28;19920;-81
2022/01/09 11:53:22;;;;;;;;;;;;;;;5.91;100.00;99964.66;5073957;28;19920;-81
2022/01/09 11:55:48;;;;;;;;;;;;;;;5.95;100.00;99968.31;5056235;28;19920;-81
2022/01/09 11:58:19;;;;;;;;;;;;;;;5.97;100.00;99965.81;5057109;28;19924;-81
2022/01/09 12:00:44;;;;;;;;;;;;;;;6.07;100.00;99960.97;5057301;28;19920;-81
2022/01/09 12:03:35;;;;;;;;;;;;;;;6.08;100.00;99973.22;5055204;28;19921;-78
2022/01/09 12:06:02;;;;;;;;;;;;;;;5.78;100.00;99987.63;5039238;28;19920;-79
2022/01/09 12:08:27;;;;;;;;;;;;;;;5.74;100.00;99977.03;5056149;28;20005;-79
2022/01/09 12:10:56;;;;;;;;;;;;;;;5.78;100.00;99985.00;5056297;28;20624;-81
2022/01/09 12:13:43;;;;;;;;;;;;;;;5.75;100.00;99989.28;5074221;28;19916;-79
2022/01/09 12:16:08;;;;;;;;;;;;;;;5.82;100.00;99990.44;5056349;28;20013;-78
2022/01/09 12:18:42;;;;;;;;;;;;;;;5.92;100.00;99996.94;5058137;28;20300;-79
2022/01/09 12:21:08;;;;;;;;;;;;;;;6.01;100.00;99989.50;5072570;28;19920;-82
2022/01/09 12:23:34;;;;;;;;;;;;;;;5.92;100.00;100003.06;5072676;28;20013;-79
2022/01/09 12:26:00;;;;;;;;;;;;;;;5.93;100.00;100003.94;5073818;28;19971;-80
2022/01/09 12:28:33;;;;;;;;;;;;;;;5.87;100.00;100003.69;5070646;28;19990;-78
2022/01/09 12:30:59;;;;;;;;;;;;;;;5.86;100.00;100008.03;5072750;28;19928;-82
2022/01/09 12:33:25;;;;;;;;;;;;;;;5.83;100.00;100012.25;5074738;28;20322;-81
2022/01/09 12:36:00;;;;;;;;;;;;;;;5.85;100.00;100013.19;5073473;28;19924;-81
2022/01/09 12:38:26;;;;;;;;;;;;;;;5.88;100.00;100019.41;5073293;28;19968;-78
2022/01/09 12:40:56;;;;;;;;;;;;;;;5.95;100.00;100023.19;5087985;28;20035;-84
2022/01/09 12:43:23;;;;;;;;;;;;;;;5.96;100.00;100032.81;5072985;28;19927;-79
2022/01/09 12:45:50;;;;;;;;;;;;;;;5.97;100.00;100037.25;5068639;28;19950;-82
2022/01/09 12:48:33;;;;;;;;;;;;;;;6.10;100.00;100038.63;5052295;28;20320;-81
2022/01/09 12:51:08;;;;;;;;;;;;;;;6.04;100.00;100036.66;5082802;28;19917;-79